20:12
Airports
History
Links
Donate
Help keep this website running!
PayPal
Bitcoin
This page is community maintained. The information is intended for PC simulator navigation or reference.
Always use approved charts for navigation.
EDXT
Sierksdorf Hof Altona
Sierksdorf Hof Altona (EDXT)
Sierksdorf, Schleswig-Holstein, Germany (23730)
(C)
Lat/Lng:54° 4' 0.84" N / 10° 44' 31.76" E
54.066901 / 10.742156
Elevation:80'ft / 24mMSL
ID / ICAO:EDXT
Runways:1
Longest:1-19
Grass 499m / 1,637ft
Controlled:Yes
Nearby Weather17:20 GMT 2017-11-22
Nearby weather at EDHL, Lubeck Blankensee located 18.1 nautical miles from EDXT
Altimeter: 29.65
Visibility: 6.2 statute miles
Wind: 7 knots (from 210°)
Temp: 10°c / 50°f
Humidity: 93.5%

METAR: EDHL 221720Z 21007KT CAVOK 10/09 Q1004

(Powered by phpweather)
Airport Radio Frequencies
Tower: 122
Nearby VORs <50NM
Nearby NDBs
Runway 1 / 19
Dimensions:498.9 x 29.9m 1637' x 98'ft
Surface:Grass
Runway 1 [A]Runway 19 [B]
Heading:209°TH 029°TH
Lat:
Lng:
54° 4' 7.9"N
10° 44' 38.55"E
54° 3' 53.79"N
10° 44' 24.98"E
User Notes and Comments
54° 4' 0.84" N / 10° 44' 31.76" E
Distance To
Airport ID:
Nearby Airports
(C) Grube 16.7 NM
EDHB NE 42°
(C) Lubeck Blankensee 18.1 NM
EDHL ( WX ) S 183°
(C) Wahlstedt 22.2 NM
EDHW WSW 252°
(U) Hartenholm 30.4 NM
EDHM WSW 249°
(C) Neujellingsdorf 30.7 NM
EDH1 NNE 28°
(C) Kiel Holtenau 32.4 NM
EDHK NW 311°
(C) Neumuenster 32.5 NM
EDHN W 271°
VFR Chart
Flight Planning at SkyVector.com